createdAt,value
2023-03-29T00:02:30.716Z,3.20
2023-03-29T00:05:01.982Z,3.20
2023-03-29T00:07:30.362Z,3.10
2023-03-29T00:09:57.945Z,3.00
2023-03-29T00:12:24.727Z,3.00
2023-03-29T00:14:51.517Z,3.00
2023-03-29T00:17:18.305Z,2.90
2023-03-29T00:19:46.080Z,3.00
2023-03-29T00:22:13.465Z,3.00
2023-03-29T00:24:40.407Z,3.10
2023-03-29T00:27:07.268Z,3.10
2023-03-29T00:29:34.043Z,3.20
2023-03-29T00:32:00.789Z,3.30
2023-03-29T00:34:30.960Z,3.40
2023-03-29T00:36:58.321Z,3.50
2023-03-29T00:39:26.403Z,3.50
2023-03-29T00:41:53.558Z,3.70
2023-03-29T00:44:54.438Z,3.70
2023-03-29T00:47:25.901Z,3.80
2023-03-29T00:49:53.920Z,3.80
2023-03-29T00:52:22.591Z,3.80
2023-03-29T00:54:54.987Z,3.90
2023-03-29T00:57:25.251Z,3.90
2023-03-29T00:59:54.450Z,3.90
2023-03-29T01:02:28.445Z,4.00
2023-03-29T01:05:05.537Z,3.80
2023-03-29T01:08:04.638Z,3.70
2023-03-29T01:11:11.337Z,3.70
2023-03-29T01:13:45.508Z,3.60
2023-03-29T01:16:14.025Z,3.50
2023-03-29T01:18:41.867Z,3.50
2023-03-29T01:21:16.482Z,3.60
2023-03-29T01:24:16.230Z,3.60
2023-03-29T01:27:05.430Z,3.50
2023-03-29T01:29:37.065Z,3.50
2023-03-29T01:32:11.826Z,3.40
2023-03-29T01:34:45.298Z,3.40
2023-03-29T01:37:18.029Z,3.40
2023-03-29T01:39:45.541Z,3.40
2023-03-29T01:42:20.325Z,3.50
2023-03-29T01:45:07.864Z,3.40
2023-03-29T01:47:43.944Z,3.30
2023-03-29T01:50:20.211Z,3.40
2023-03-29T01:53:40.530Z,3.40
2023-03-29T01:56:23.429Z,3.30
2023-03-29T01:58:54.058Z,3.40
2023-03-29T02:01:26.008Z,3.30
2023-03-29T02:03:59.211Z,3.30
2023-03-29T02:06:27.896Z,3.30
2023-03-29T02:08:55.758Z,3.40
2023-03-29T02:11:24.726Z,3.40
2023-03-29T02:13:51.432Z,3.30
2023-03-29T02:16:18.833Z,3.50
2023-03-29T02:18:48.548Z,3.40
2023-03-29T02:21:28.109Z,3.40
2023-03-29T02:23:57.739Z,3.40
2023-03-29T02:26:24.585Z,3.40
2023-03-29T02:28:52.680Z,3.40
2023-03-29T02:31:37.075Z,3.40
2023-03-29T02:34:11.104Z,3.50
2023-03-29T02:37:02.046Z,3.40
2023-03-29T02:39:32.096Z,3.40
2023-03-29T02:41:59.407Z,3.40
2023-03-29T02:44:29.623Z,3.30
2023-03-29T02:47:03.303Z,3.30
2023-03-29T02:49:30.294Z,3.30
2023-03-29T02:51:59.743Z,3.30
2023-03-29T02:54:29.930Z,3.40
2023-03-29T02:56:59.299Z,3.30
2023-03-29T02:59:26.828Z,3.40
2023-03-29T03:01:53.666Z,3.40
2023-03-29T03:04:20.707Z,3.40
2023-03-29T03:06:47.870Z,3.40
2023-03-29T03:09:14.573Z,3.40
2023-03-29T03:11:41.708Z,3.40
2023-03-29T03:14:08.614Z,3.40
2023-03-29T03:16:36.411Z,3.40
2023-03-29T03:19:03.778Z,3.40
2023-03-29T03:21:30.487Z,3.30
2023-03-29T03:23:57.104Z,3.30
2023-03-29T03:26:24.918Z,3.30
2023-03-29T03:28:51.633Z,3.20
2023-03-29T03:31:19.425Z,3.20
2023-03-29T03:33:46.157Z,3.20
2023-03-29T03:36:12.904Z,3.10
2023-03-29T03:38:39.941Z,3.10
2023-03-29T03:41:07.197Z,3.00
2023-03-29T03:43:34.553Z,3.00
2023-03-29T03:46:01.908Z,2.90
2023-03-29T03:48:28.709Z,3.00
2023-03-29T03:50:58.198Z,3.00
2023-03-29T03:53:26.357Z,3.00
2023-03-29T03:55:55.814Z,2.90
2023-03-29T03:58:23.166Z,2.90
2023-03-29T04:00:50.834Z,2.90
2023-03-29T04:03:18.091Z,2.80
2023-03-29T04:05:47.043Z,2.80
2023-03-29T04:08:14.152Z,2.80
2023-03-29T04:10:41.314Z,2.80
2023-03-29T04:13:08.302Z,2.90
2023-03-29T04:15:38.541Z,2.90
2023-03-29T04:18:07.527Z,3.00
2023-03-29T04:20:34.524Z,3.00
2023-03-29T04:23:01.387Z,3.00
2023-03-29T04:25:28.380Z,3.10
2023-03-29T04:27:55.125Z,3.10
2023-03-29T04:30:21.913Z,3.20
2023-03-29T04:32:48.726Z,3.20
2023-03-29T04:35:15.481Z,3.30
2023-03-29T04:37:42.240Z,3.40
2023-03-29T04:40:09.913Z,3.50
2023-03-29T04:42:37.598Z,3.60
2023-03-29T04:45:07.149Z,3.80
2023-03-29T04:47:36.405Z,4.00
2023-03-29T04:50:03.939Z,4.10
2023-03-29T04:52:33.085Z,4.20
2023-03-29T04:55:01.474Z,4.30
2023-03-29T04:57:29.082Z,4.40
2023-03-29T04:59:56.284Z,4.50
2023-03-29T05:02:23.009Z,4.60
2023-03-29T05:04:50.402Z,4.60
2023-03-29T05:07:18.126Z,4.80
2023-03-29T05:09:44.939Z,4.90
2023-03-29T05:12:11.815Z,5.00
2023-03-29T05:14:38.462Z,5.10
2023-03-29T05:17:06.360Z,5.20
2023-03-29T05:19:33.543Z,5.30
2023-03-29T05:22:00.673Z,5.30
2023-03-29T05:24:27.342Z,5.50
2023-03-29T05:26:53.976Z,5.50
2023-03-29T05:34:15.490Z,5.60
2023-03-29T06:08:44.492Z,5.80
2023-03-29T06:11:13.175Z,6.30
2023-03-29T06:13:42.055Z,6.30
2023-03-29T06:16:13.294Z,6.30
2023-03-29T06:18:40.979Z,6.30
2023-03-29T06:21:09.055Z,6.30
2023-03-29T06:23:36.480Z,6.30
2023-03-29T06:26:03.908Z,6.30
2023-03-29T06:28:30.617Z,6.30
2023-03-29T06:31:02.301Z,6.40
2023-03-29T06:33:30.806Z,6.50
2023-03-29T06:35:57.937Z,6.50
2023-03-29T06:43:27.182Z,6.60
2023-03-29T06:45:54.920Z,6.90
2023-03-29T06:48:21.714Z,6.80
2023-03-29T06:50:49.132Z,6.80
2023-03-29T06:53:15.791Z,7.00
2023-03-29T06:55:42.440Z,7.10
2023-03-29T06:58:09.272Z,7.10
2023-03-29T07:00:38.893Z,7.20
2023-03-29T07:03:09.659Z,7.30
2023-03-29T07:08:07.423Z,7.40
2023-03-29T07:10:39.880Z,7.40
2023-03-29T07:13:08.741Z,7.60
2023-03-29T07:15:36.234Z,7.80
2023-03-29T07:18:04.617Z,7.90
2023-03-29T07:20:33.630Z,8.00
2023-03-29T07:23:00.561Z,8.20
2023-03-29T07:25:27.780Z,8.40
2023-03-29T07:27:54.572Z,8.50
2023-03-29T07:30:25.298Z,8.50
2023-03-29T07:32:52.264Z,8.50
2023-03-29T08:47:14.509Z,8.60
2023-03-29T10:01:09.434Z,9.60
2023-03-29T10:11:20.314Z,11.00
2023-03-29T10:13:50.524Z,11.50
2023-03-29T10:16:23.513Z,11.30
2023-03-29T10:18:50.565Z,11.50
2023-03-29T10:21:20.838Z,11.40
2023-03-29T10:23:48.989Z,11.30
2023-03-29T10:26:30.918Z,11.60
2023-03-29T10:29:00.451Z,11.70
2023-03-29T10:31:31.343Z,11.50
2023-03-29T10:34:02.679Z,11.50
2023-03-29T10:36:30.272Z,11.50
2023-03-29T10:39:00.049Z,11.50
2023-03-29T10:41:27.985Z,11.70
2023-03-29T10:43:54.803Z,11.70
2023-03-29T10:46:33.321Z,11.80
2023-03-29T10:49:05.783Z,12.10
2023-03-29T10:51:34.417Z,12.10
2023-03-29T10:54:03.238Z,12.00
2023-03-29T10:56:38.973Z,12.20
2023-03-29T10:59:43.690Z,12.50
2023-03-29T11:02:18.925Z,12.40
2023-03-29T11:05:13.398Z,12.50
2023-03-29T11:08:15.104Z,12.80
2023-03-29T11:10:44.519Z,12.80
2023-03-29T11:13:40.289Z,12.60
2023-03-29T11:17:06.052Z,12.80
2023-03-29T11:19:46.573Z,12.80
2023-03-29T11:22:31.579Z,12.80
2023-03-29T11:30:58.204Z,12.90
2023-03-29T11:33:50.994Z,13.30
2023-03-29T11:36:28.182Z,13.20
2023-03-29T11:39:07.578Z,13.00
2023-03-29T11:41:38.314Z,13.20
2023-03-29T11:44:27.295Z,13.20
2023-03-29T11:47:18.530Z,13.50
2023-03-29T11:50:00.368Z,13.50
2023-03-29T11:52:59.616Z,13.70
2023-03-29T11:55:34.381Z,13.60
2023-03-29T11:58:32.255Z,13.70
2023-03-29T12:01:08.056Z,13.70
2023-03-29T13:05:33.764Z,13.70
2023-03-29T13:08:19.207Z,14.80
2023-03-29T13:10:53.947Z,14.90
2023-03-29T15:03:01.611Z,15.00
2023-03-29T15:05:33.975Z,13.70
2023-03-29T15:08:02.245Z,13.70
2023-03-29T15:10:33.270Z,13.60
2023-03-29T15:13:03.135Z,13.60
2023-03-29T15:15:33.451Z,13.50
2023-03-29T15:18:01.397Z,13.40
2023-03-29T15:20:33.427Z,13.20
2023-03-29T15:23:15.257Z,12.90
2023-03-29T15:25:51.286Z,12.80
2023-03-29T15:31:07.357Z,12.70
2023-03-29T15:38:43.076Z,12.30
2023-03-29T15:41:11.047Z,11.80
2023-03-29T15:43:37.784Z,11.70
2023-03-29T15:46:04.890Z,11.80
2023-03-29T15:48:33.522Z,11.80
2023-03-29T15:51:03.960Z,11.80
2023-03-29T15:53:32.950Z,11.80
2023-03-29T18:58:33.681Z,11.70
2023-03-29T19:01:06.099Z,9.80
2023-03-29T19:03:34.808Z,9.80
2023-03-29T19:06:02.310Z,9.80
2023-03-29T19:08:29.333Z,9.80
2023-03-29T19:11:05.786Z,9.80
2023-03-29T19:13:32.800Z,9.80
2023-03-29T19:15:59.468Z,9.70
2023-03-29T19:18:26.423Z,9.70
2023-03-29T19:20:56.118Z,9.70
2023-03-29T19:23:25.898Z,9.70
2023-03-29T19:26:01.198Z,9.70
2023-03-29T19:28:28.472Z,9.70
2023-03-29T19:30:57.777Z,9.70
2023-03-29T19:33:24.525Z,9.70
2023-03-29T19:35:51.723Z,9.60
2023-03-29T19:38:20.030Z,9.60
2023-03-29T19:40:48.208Z,9.60
2023-03-29T19:43:16.582Z,9.70
2023-03-29T19:45:44.221Z,9.60
2023-03-29T19:48:21.169Z,9.60
2023-03-29T19:50:48.821Z,9.70
2023-03-29T19:53:15.701Z,9.60
2023-03-29T19:55:44.116Z,9.70
2023-03-29T19:58:10.909Z,9.80
2023-03-29T20:00:38.789Z,9.80
2023-03-29T20:03:09.189Z,9.80
2023-03-29T20:05:38.241Z,9.90
2023-03-29T20:08:07.292Z,10.00
2023-03-29T20:10:34.857Z,10.20
2023-03-29T20:13:02.312Z,10.30
